ニューヨーク/JFK の空港の天気 - METARとTAF

ジョン・F・ケネディ国際空港 ( KJFK / JFK ) - アメリカ ニューヨーク州ニューヨーク
飛行場実況気象(Metar)
観測時間11/23 19:51 EST (11/24 00:51 UTC)
風向・風速西 6m/s
視程10km以上
天気現象
少しの雲 雲底高度 5790m
全天の4割程度の雲 雲底高度 7620m
気温3.9℃
湿度52%
気圧1016.7hPa
METARKJFK 240051Z 26012KT 10SM FEW190 SCT250 04/M05 A3003 RMK AO2 SLP167 T00391050
過去の天気等 Google飛行場航空写真 Wunderground天気予報

過去48時間のMETAR

飛行場予報(TAF)
発表時間: 11/23 18:40 EST (11/23 23:40 UTC)
予報対象時間: 23日19時 EST ~ 25日1時 EST
風向・風速西 4m/s
視程10km以上
全天の4割程度の雲 雲底高度 6,100m
24日11時 EST から
風向・風速西 3m/s
視程10km以上
なし
24日12時 EST から
風向・風速南西 3m/s
視程10km以上
なし
24日16時 EST から
風向・風速南南西 4m/s
視程10km以上
なし
KJFK 232340Z 2400/2506 28007KT P6SM SCT200
FM241600 26006KT P6SM SKC
FM241700 23006KT P6SM SKC
FM242100 20008KT P6SM SKC